Time;durP1;ratioP1;P1;durP2;ratioP2;P2;SDS_P1;SDS_P2;PMS_P1;PMS_P2;Temp;Humidity;BMP_temperature;BMP_pressure;BME280_temperature;BME280_humidity;BME280_pressure;Samples;Min_cycle;Max_cycle;Signal;HPM_P1;HPM_P2
2022/05/17 00:00:27;;;;;;;4.80;3.22;;;461.10;2380.80;;;;;;5012798;28;20029;-56
2022/05/17 00:02:52;;;;;;;3.47;2.65;;;461.20;2380.80;;;;;;5012906;28;20029;-56
2022/05/17 00:05:18;;;;;;;5.97;3.30;;;461.10;2380.80;;;;;;5012949;28;20033;-55
2022/05/17 00:07:44;;;;;;;4.15;3.05;;;461.10;2380.80;;;;;;5013023;28;20384;-55
2022/05/17 00:10:10;;;;;;;5.18;3.53;;;461.00;2380.80;;;;;;5012824;28;20030;-57
2022/05/17 00:12:36;;;;;;;3.88;2.63;;;461.00;2380.80;;;;;;5012708;28;20022;-56
2022/05/17 00:15:03;;;;;;;5.00;3.10;;;461.10;2380.80;;;;;;5013037;28;20026;-57
2022/05/17 00:17:29;;;;;;;6.22;3.20;;;461.10;2380.80;;;;;;5012442;28;20072;-56
2022/05/17 00:19:55;;;;;;;8.98;4.43;;;461.00;2380.80;;;;;;5012646;28;20034;-56
2022/05/17 00:22:20;;;;;;;4.60;2.63;;;461.10;2380.80;;;;;;4995125;28;20092;-56
2022/05/17 00:24:46;;;;;;;4.80;2.90;;;461.00;2380.80;;;;;;5012232;28;20522;-57
2022/05/17 00:27:12;;;;;;;4.72;3.05;;;460.80;2380.80;;;;;;5012886;28;20526;-57
2022/05/17 00:29:38;;;;;;;5.40;3.67;;;436.10;2355.20;;;;;;5011831;28;20095;-59
2022/05/17 00:32:04;;;;;;;5.38;2.92;;;436.10;2355.20;;;;;;5012614;28;20019;-56
2022/05/17 00:34:31;;;;;;;7.55;3.33;;;436.00;2355.20;;;;;;5012262;28;20472;-56
2022/05/17 00:36:57;;;;;;;4.80;2.58;;;460.80;2380.80;;;;;;5012264;28;20113;-56
2022/05/17 00:39:23;;;;;;;5.70;2.70;;;460.80;2380.80;;;;;;5012436;28;20443;-56
2022/05/17 00:41:49;;;;;;;4.03;2.80;;;460.80;2380.80;;;;;;5012442;28;20104;-56
2022/05/17 00:47:20;;;;;;;5.35;2.97;;;461.00;2380.80;;;;;;5012464;28;20109;-57
2022/05/17 00:50:09;;;;;;;4.68;3.47;;;460.80;2380.80;;;;;;5012010;28;20480;-56
2022/05/17 00:52:44;;;;;;;4.28;2.75;;;436.10;2355.20;;;;;;4914024;29;20467;-57
2022/05/17 00:55:30;;;;;;;5.45;2.95;;;435.70;2355.20;;;;;;4913357;29;20043;-56
2022/05/17 00:58:10;;;;;;;4.00;2.47;;;435.80;2355.20;;;;;;4913464;29;20048;-56
2022/05/17 01:00:47;;;;;;;3.45;2.60;;;436.00;2355.20;;;;;;4913326;29;20059;-56
2022/05/17 01:03:17;;;;;;;4.55;2.70;;;436.00;2355.20;;;;;;4913550;29;20189;-55
2022/05/17 01:05:46;;;;;;;4.75;2.95;;;436.10;2355.20;;;;;;4913628;29;20475;-56
2022/05/17 01:08:15;;;;;;;4.15;2.70;;;460.80;2380.80;;;;;;4913453;29;20036;-55
2022/05/17 01:10:41;;;;;;;4.82;2.33;;;436.10;2355.20;;;;;;4913424;29;20051;-56
2022/05/17 01:15:51;;;;;;;4.95;3.10;;;436.10;2355.20;;;;;;4913604;29;20044;-56
2022/05/17 01:18:17;;;;;;;4.47;2.60;;;436.00;2355.20;;;;;;4912970;29;20139;-56
2022/05/17 01:20:44;;;;;;;4.30;2.53;;;436.00;2355.20;;;;;;4913375;29;20040;-55
2022/05/17 01:23:09;;;;;;;4.40;2.30;;;436.10;2355.20;;;;;;4912912;29;20036;-56
2022/05/17 01:25:35;;;;;;;4.10;2.60;;;436.10;2355.20;;;;;;4899313;29;20060;-56
2022/05/17 01:28:08;;;;;;;3.90;2.53;;;436.10;2355.20;;;;;;4894136;29;20084;-56
2022/05/17 01:30:34;;;;;;;2.90;2.07;;;436.10;2355.20;;;;;;4983348;28;20038;-56
2022/05/17 01:32:59;;;;;;;3.92;2.70;;;436.00;2355.20;;;;;;4991559;28;20041;-56
2022/05/17 01:35:25;;;;;;;4.63;3.03;;;436.10;2355.20;;;;;;4992000;28;20027;-55
2022/05/17 01:37:55;;;;;;;3.33;2.40;;;436.10;2355.20;;;;;;4991868;28;20022;-56
2022/05/17 01:40:25;;;;;;;4.75;2.35;;;436.00;2355.20;;;;;;4991214;28;20081;-58
2022/05/17 01:42:50;;;;;;;4.15;2.63;;;436.00;2355.20;;;;;;4991712;28;20077;-55
2022/05/17 01:45:17;;;;;;;4.78;2.58;;;435.90;2355.20;;;;;;4991449;28;20026;-55
2022/05/17 01:47:42;;;;;;;2.83;2.15;;;436.00;2355.20;;;;;;4991589;28;20109;-61
2022/05/17 01:50:08;;;;;;;4.07;2.17;;;435.90;2355.20;;;;;;4991420;28;20117;-56
2022/05/17 01:52:34;;;;;;;3.92;2.58;;;435.80;2355.20;;;;;;4991563;28;20030;-57
2022/05/17 01:55:00;;;;;;;3.85;2.70;;;435.70;2355.20;;;;;;4991122;28;20085;-58
2022/05/17 01:57:26;;;;;;;5.18;2.85;;;435.60;2355.20;;;;;;4991281;28;20034;-59
2022/05/17 01:59:52;;;;;;;4.15;2.22;;;435.70;2355.20;;;;;;4991478;28;20412;-59
2022/05/17 02:02:17;;;;;;;4.43;2.58;;;435.60;2355.20;;;;;;4991288;28;20033;-55
2022/05/17 02:04:43;;;;;;;4.82;3.05;;;435.50;2355.20;;;;;;4991286;28;20106;-56
2022/05/17 02:07:10;;;;;;;4.18;2.55;;;435.50;2355.20;;;;;;4991213;28;20038;-57
2022/05/17 02:09:36;;;;;;;4.50;2.90;;;435.50;2355.20;;;;;;4991221;28;20438;-57
2022/05/17 02:12:03;;;;;;;2.97;2.33;;;435.40;2355.20;;;;;;4991160;28;20034;-59
2022/05/17 02:14:28;;;;;;;4.43;3.08;;;435.40;2355.20;;;;;;4991119;28;20068;-56
2022/05/17 02:16:55;;;;;;;4.03;2.92;;;435.50;2355.20;;;;;;4991198;28;20049;-58
2022/05/17 02:19:22;;;;;;;4.97;2.70;;;435.40;2355.20;;;;;;4991051;28;20026;-56
2022/05/17 02:21:48;;;;;;;3.70;2.50;;;435.30;2355.20;;;;;;4990932;28;20022;-55
2022/05/17 02:24:14;;;;;;;3.78;2.42;;;435.40;2355.20;;;;;;4994063;28;20045;-58
2022/05/17 02:26:40;;;;;;;5.63;2.80;;;435.40;2355.20;;;;;;5010501;28;20043;-60
2022/05/17 02:29:06;;;;;;;4.53;2.60;;;435.30;2355.20;;;;;;5010368;28;20116;-57
2022/05/17 02:31:32;;;;;;;4.25;2.90;;;435.40;2355.20;;;;;;5010447;28;20108;-56
2022/05/17 02:33:58;;;;;;;4.05;2.55;;;435.30;2355.20;;;;;;5010281;28;20079;-57
2022/05/17 02:36:23;;;;;;;5.82;2.75;;;435.20;2355.20;;;;;;5010761;28;20371;-59
2022/05/17 02:38:49;;;;;;;5.07;2.90;;;410.50;2355.20;;;;;;5010208;28;20110;-56
2022/05/17 02:41:19;;;;;;;4.70;3.10;;;410.40;2355.20;;;;;;5010470;28;20470;-55
2022/05/17 02:43:47;;;;;;;5.70;3.25;;;410.20;2355.20;;;;;;5010538;28;20033;-58
2022/05/17 02:46:14;;;;;;;5.03;2.83;;;410.00;2355.20;;;;;;4992482;28;20365;-56
2022/05/17 02:48:40;;;;;;;4.90;2.67;;;410.10;2355.20;;;;;;5010161;28;20494;-55
2022/05/17 02:51:17;;;;;;;3.50;2.42;;;410.10;2355.20;;;;;;5010554;28;20026;-57
2022/05/17 02:53:43;;;;;;;4.97;2.58;;;410.20;2355.20;;;;;;5016418;28;20029;-56
2022/05/17 02:56:10;;;;;;;3.63;2.65;;;410.20;2355.20;;;;;;5016912;28;20052;-58
2022/05/17 02:58:37;;;;;;;3.67;2.58;;;410.20;2355.20;;;;;;5016706;28;20024;-56
2022/05/17 03:01:03;;;;;;;5.07;2.55;;;410.20;2355.20;;;;;;5016761;28;20051;-55
2022/05/17 03:03:30;;;;;;;4.63;3.17;;;410.30;2355.20;;;;;;5016550;28;20487;-56
2022/05/17 03:05:56;;;;;;;4.72;2.67;;;410.50;2355.20;;;;;;5016962;28;20586;-58
2022/05/17 03:08:22;;;;;;;6.18;3.30;;;410.30;2355.20;;;;;;5016754;28;20378;-55
2022/05/17 03:10:48;;;;;;;6.03;3.20;;;410.20;2355.20;;;;;;5016397;28;20034;-59
2022/05/17 03:13:15;;;;;;;3.97;2.53;;;410.40;2355.20;;;;;;5016846;28;20072;-55
2022/05/17 03:15:42;;;;;;;4.10;3.15;;;410.30;2355.20;;;;;;5016670;28;20105;-55
2022/05/17 03:18:08;;;;;;;3.60;2.15;;;410.30;2355.20;;;;;;5016506;28;20396;-56
2022/05/17 03:20:35;;;;;;;4.60;2.60;;;410.40;2355.20;;;;;;5016574;28;20073;-58
2022/05/17 03:23:01;;;;;;;4.15;2.40;;;410.50;2355.20;;;;;;5016416;28;20046;-56
2022/05/17 03:25:27;;;;;;;3.95;2.70;;;435.20;2355.20;;;;;;5016249;28;20515;-55
2022/05/17 03:27:54;;;;;;;5.03;2.80;;;435.30;2355.20;;;;;;5016612;28;20034;-56
2022/05/17 03:30:20;;;;;;;3.72;2.67;;;435.40;2355.20;;;;;;5016346;28;20034;-56
2022/05/17 03:32:46;;;;;;;5.03;2.90;;;435.70;2355.20;;;;;;5016377;28;20068;-56
2022/05/17 03:35:12;;;;;;;4.97;2.63;;;435.90;2355.20;;;;;;5016468;28;20029;-56
2022/05/17 03:37:38;;;;;;;5.28;3.15;;;460.80;2380.80;;;;;;5016267;28;20105;-58
2022/05/17 03:40:07;;;;;;;5.18;3.15;;;460.80;2380.80;;;;;;5016385;28;20106;-56
2022/05/17 03:42:33;;;;;;;3.75;2.65;;;460.90;2380.80;;;;;;5016513;28;20025;-58
2022/05/17 03:44:59;;;;;;;4.13;2.55;;;461.00;2380.80;;;;;;5016312;28;20026;-56
2022/05/17 03:47:25;;;;;;;5.07;3.00;;;461.00;2380.80;;;;;;5016524;28;20490;-56
2022/05/17 03:49:51;;;;;;;5.95;3.08;;;461.10;2380.80;;;;;;5016285;28;20443;-59
2022/05/17 03:52:17;;;;;;;6.00;2.53;;;461.20;2380.80;;;;;;5016193;28;20018;-56
2022/05/17 03:54:42;;;;;;;4.78;2.90;;;461.20;2380.80;;;;;;5016174;28;20029;-55
2022/05/17 03:57:08;;;;;;;5.03;2.97;;;461.10;2380.80;;;;;;5016046;28;20034;-55
2022/05/17 03:59:34;;;;;;;4.65;2.47;;;461.10;2380.80;;;;;;5016297;28;20030;-57
2022/05/17 04:02:01;;;;;;;3.63;2.50;;;461.00;2380.80;;;;;;5016037;28;20116;-56
2022/05/17 04:04:26;;;;;;;5.25;2.80;;;461.10;2380.80;;;;;;5013038;28;20033;-58
2022/05/17 04:06:52;;;;;;;5.22;3.10;;;461.00;2380.80;;;;;;5013262;28;20544;-56
2022/05/17 04:09:18;;;;;;;4.38;2.42;;;460.80;2380.80;;;;;;5012741;28;20041;-59
2022/05/17 04:11:44;;;;;;;6.32;3.00;;;461.10;2380.80;;;;;;5013157;28;20037;-56
2022/05/17 04:14:09;;;;;;;4.45;2.80;;;461.20;2380.80;;;;;;5012942;28;20030;-56
2022/05/17 04:16:37;;;;;;;4.35;2.92;;;461.20;2380.80;;;;;;5012951;28;20030;-56
2022/05/17 04:19:03;;;;;;;4.70;3.03;;;461.30;2380.80;;;;;;5012967;28;20025;-59
2022/05/17 04:21:30;;;;;;;5.78;2.53;;;461.60;2380.80;;;;;;5012717;28;20156;-59
2022/05/17 04:23:56;;;;;;;4.47;3.03;;;486.40;2380.80;;;;;;5012290;28;20546;-57
2022/05/17 04:26:23;;;;;;;5.60;2.95;;;486.40;2380.80;;;;;;5012888;28;20480;-59
2022/05/17 04:28:50;;;;;;;6.57;3.17;;;486.40;2380.80;;;;;;5012330;28;20494;-57
2022/05/17 04:31:16;;;;;;;3.30;2.60;;;486.40;2380.80;;;;;;5012635;28;20049;-58
2022/05/17 04:33:42;;;;;;;4.13;3.05;;;486.40;2380.80;;;;;;5012614;28;20392;-58
2022/05/17 04:36:09;;;;;;;5.63;3.58;;;486.50;2380.80;;;;;;5012396;28;20076;-57
2022/05/17 04:38:35;;;;;;;4.63;2.72;;;486.60;2380.80;;;;;;5012527;28;20543;-59
2022/05/17 04:41:01;;;;;;;3.85;2.47;;;461.60;2380.80;;;;;;4994943;28;20063;-59
2022/05/17 04:43:27;;;;;;;3.95;2.72;;;461.40;2380.80;;;;;;5012186;28;20056;-59
2022/05/17 04:45:54;;;;;;;3.65;2.20;;;461.60;2380.80;;;;;;5012383;28;20076;-56
2022/05/17 04:48:20;;;;;;;4.00;2.80;;;486.60;2380.80;;;;;;5012026;28;20045;-58
2022/05/17 04:50:46;;;;;;;5.45;3.40;;;486.80;2380.80;;;;;;5011929;28;20388;-57
2022/05/17 04:53:12;;;;;;;4.28;3.30;;;512.20;2380.80;;;;;;5012272;28;20079;-58
2022/05/17 04:55:37;;;;;;;4.35;3.30;;;563.80;2150.40;;;;;;5011929;28;20381;-56
2022/05/17 04:58:03;;;;;;;4.35;3.38;;;665.90;1664.00;;;;;;5012239;28;20544;-57
2022/05/17 05:00:29;;;;;;;4.53;3.58;;;716.80;1510.40;;;;;;5012082;28;20033;-56
2022/05/17 05:02:55;;;;;;;4.93;3.28;;;743.10;1408.00;;;;;;5012094;28;20032;-56
2022/05/17 05:05:22;;;;;;;3.92;3.53;;;819.20;1254.40;;;;;;5011850;28;20021;-59
2022/05/17 05:07:49;;;;;;;4.03;2.80;;;819.40;1254.40;;;;;;5011552;28;20057;-58
2022/05/17 05:10:14;;;;;;;6.15;3.83;;;793.70;1280.00;;;;;;5011890;28;20053;-59
2022/05/17 05:12:40;;;;;;;4.80;3.22;;;742.90;1356.80;;;;;;5011772;28;20060;-57
2022/05/17 05:15:07;;;;;;;4.75;3.80;;;742.60;1382.40;;;;;;5011443;28;20553;-58
2022/05/17 05:17:36;;;;;;;5.00;3.65;;;819.30;1228.80;;;;;;5011697;28;20526;-58
2022/05/17 05:20:03;;;;;;;4.13;3.70;;;870.70;1152.00;;;;;;5011695;28;20022;-59
2022/05/17 05:22:34;;;;;;;5.03;4.25;;;871.30;1100.80;;;;;;5011320;28;20033;-57
2022/05/17 05:25:00;;;;;;;5.30;4.85;;;896.40;1075.20;;;;;;5010953;28;20046;-57
2022/05/17 05:27:30;;;;;;;4.93;4.53;;;896.80;1075.20;;;;;;5011376;28;20036;-58
2022/05/17 05:29:56;;;;;;;3.70;3.03;;;922.30;1049.60;;;;;;5011237;28;20492;-57
2022/05/17 05:32:22;;;;;;;7.22;4.45;;;896.00;1100.80;;;;;;5018294;28;20030;-58
2022/05/17 05:34:48;;;;;;;4.43;3.95;;;870.90;1152.00;;;;;;5018750;28;20033;-60
2022/05/17 05:37:13;;;;;;;4.40;4.00;;;896.70;1075.20;;;;;;5020270;28;20372;-57
2022/05/17 05:39:39;;;;;;;5.13;4.70;;;921.80;1075.20;;;;;;5020274;28;20025;-57
2022/05/17 05:42:05;;;;;;;5.40;4.32;;;947.80;998.40;;;;;;5013700;28;20026;-58
2022/05/17 05:44:35;;;;;;;4.82;4.43;;;998.70;972.80;;;;;;5011002;28;20030;-57
2022/05/17 05:47:00;;;;;;;5.50;5.00;;;1024.50;947.20;;;;;;5019686;28;20022;-57
2022/05/17 05:49:26;;;;;;;7.05;5.35;;;1075.50;896.00;;;;;;5015460;28;20088;-56
2022/05/17 05:51:52;;;;;;;6.10;5.60;;;1075.50;896.00;;;;;;5018174;28;20460;-57
2022/05/17 05:54:18;;;;;;;6.40;5.85;;;1100.90;896.00;;;;;;4995372;28;20053;-58
2022/05/17 05:56:44;;;;;;;6.32;5.82;;;1101.50;870.40;;;;;;5010729;28;20546;-58
2022/05/17 05:59:10;;;;;;;7.00;6.45;;;1126.70;870.40;;;;;;4993556;28;20030;-57
2022/05/17 06:01:36;;;;;;;6.32;5.90;;;1127.10;844.80;;;;;;5011209;28;20839;-57
2022/05/17 06:04:01;;;;;;;6.18;5.70;;;1126.80;870.40;;;;;;5010783;28;20026;-57
2022/05/17 06:06:27;;;;;;;7.60;7.00;;;1152.20;819.20;;;;;;5010642;28;20022;-57
2022/05/17 06:08:53;;;;;;;7.50;7.00;;;1177.80;793.60;;;;;;5010812;28;20041;-58
2022/05/17 06:11:19;;;;;;;5.38;4.97;;;1177.70;793.60;;;;;;5010487;28;20088;-57
2022/05/17 06:13:45;;;;;;;6.78;6.18;;;1126.70;870.40;;;;;;5010841;28;20049;-58
2022/05/17 06:16:11;;;;;;;5.82;4.88;;;1075.90;896.00;;;;;;5010864;28;20102;-57
2022/05/17 06:18:37;;;;;;;8.18;7.47;;;1049.80;947.20;;;;;;5010484;28;20108;-57
2022/05/17 06:21:03;;;;;;;8.25;7.65;;;1100.90;896.00;;;;;;5010618;28;20072;-58
2022/05/17 06:23:29;;;;;;;8.05;7.47;;;1126.40;896.00;;;;;;5010409;28;20050;-57
2022/05/17 06:25:55;;;;;;;7.85;7.35;;;1127.10;844.80;;;;;;5010741;28;20108;-57
2022/05/17 06:28:21;;;;;;;8.18;7.57;;;1152.20;819.20;;;;;;5009788;28;20034;-56
2022/05/17 06:30:47;;;;;;;9.20;8.50;;;1152.50;819.20;;;;;;5009977;28;20113;-57
2022/05/17 06:33:15;;;;;;;8.55;7.95;;;1177.60;793.60;;;;;;5010661;28;20050;-57
2022/05/17 06:35:45;;;;;;;9.02;8.43;;;1152.60;819.20;;;;;;5010522;28;20101;-56
2022/05/17 06:38:11;;;;;;;9.30;8.70;;;1152.90;819.20;;;;;;5010396;28;20030;-58
2022/05/17 06:40:38;;;;;;;10.02;9.23;;;1177.80;819.20;;;;;;5010112;28;20121;-57
2022/05/17 06:43:04;;;;;;;10.18;9.57;;;1178.30;793.60;;;;;;5010579;28;20373;-57
2022/05/17 06:45:30;;;;;;;9.35;8.70;;;1203.60;819.20;;;;;;5010099;28;20503;-57
2022/05/17 06:47:56;;;;;;;11.32;10.63;;;1203.80;793.60;;;;;;5010037;28;20464;-57
2022/05/17 06:50:22;;;;;;;8.93;8.32;;;1228.80;793.60;;;;;;5010185;28;20033;-57
2022/05/17 06:52:48;;;;;;;6.90;6.20;;;1228.90;793.60;;;;;;5009901;28;20065;-58
2022/05/17 06:55:14;;;;;;;7.75;6.53;;;1203.40;793.60;;;;;;5010136;28;20038;-59
2022/05/17 06:57:40;;;;;;;8.85;8.25;;;1101.70;870.40;;;;;;5010128;28;20026;-56
2022/05/17 07:00:08;;;;;;;8.68;7.97;;;1152.40;844.80;;;;;;5010027;28;20083;-56
2022/05/17 07:02:35;;;;;;;6.30;5.70;;;1127.30;844.80;;;;;;5010181;28;20395;-57
2022/05/17 07:05:00;;;;;;;5.93;5.40;;;1101.40;870.40;;;;;;5009912;28;20057;-58
2022/05/17 07:07:26;;;;;;;8.32;7.82;;;1100.90;870.40;;;;;;5009865;28;20057;-57
2022/05/17 07:15:21;;;;;;;8.30;7.70;;;1152.60;819.20;;;;;;5010426;28;20064;-57
2022/05/17 07:17:47;;;;;;;7.97;7.47;;;1152.70;819.20;;;;;;5009806;28;20105;-57
2022/05/17 07:20:14;;;;;;;9.65;9.02;;;1152.40;819.20;;;;;;5009817;28;20033;-56
2022/05/17 07:22:40;;;;;;;9.90;9.05;;;1152.00;819.20;;;;;;5009581;28;20026;-58
2022/05/17 07:25:07;;;;;;;7.97;7.47;;;1152.90;793.60;;;;;;5009386;28;20058;-61
2022/05/17 07:27:34;;;;;;;9.45;8.63;;;1152.10;819.20;;;;;;5009705;28;20076;-57
2022/05/17 07:29:59;;;;;;;8.50;7.90;;;1177.70;768.00;;;;;;5009422;28;20034;-58
2022/05/17 07:32:25;;;;;;;8.75;7.90;;;1177.70;768.00;;;;;;5009502;28;20465;-58
2022/05/17 07:34:51;;;;;;;9.20;8.57;;;1178.10;742.40;;;;;;5009425;28;20041;-58
2022/05/17 07:37:16;;;;;;;9.90;9.35;;;1177.60;768.00;;;;;;5009505;28;20026;-62
2022/05/17 07:39:42;;;;;;;10.25;9.55;;;1178.30;742.40;;;;;;5011876;28;20026;-58
2022/05/17 07:42:09;;;;;;;10.13;9.55;;;1177.80;742.40;;;;;;5013528;28;20056;-58
2022/05/17 07:44:35;;;;;;;10.15;9.50;;;1177.60;768.00;;;;;;5013500;28;20022;-58
2022/05/17 07:47:01;;;;;;;10.63;10.00;;;1203.20;742.40;;;;;;5013504;28;20033;-58
2022/05/17 07:49:27;;;;;;;10.57;9.57;;;1177.60;768.00;;;;;;5013156;28;20480;-57
2022/05/17 07:51:54;;;;;;;10.02;9.43;;;1177.70;768.00;;;;;;5013226;28;20037;-58
2022/05/17 07:54:20;;;;;;;10.00;9.38;;;1152.90;768.00;;;;;;5012907;28;20050;-58
2022/05/17 07:56:46;;;;;;;9.77;9.13;;;1178.50;742.40;;;;;;5013083;28;20037;-58
2022/05/17 07:59:11;;;;;;;9.82;9.23;;;1178.30;742.40;;;;;;5013306;28;20033;-62
2022/05/17 08:01:37;;;;;;;10.75;9.93;;;1178.20;742.40;;;;;;5013295;28;20025;-58
2022/05/17 08:04:03;;;;;;;9.32;8.63;;;1178.20;742.40;;;;;;5013166;28;20084;-58
2022/05/17 08:06:29;;;;;;;9.13;8.52;;;1177.80;768.00;;;;;;5012682;28;20033;-57
2022/05/17 08:08:55;;;;;;;9.57;8.98;;;1203.20;768.00;;;;;;5012732;28;20034;-57
2022/05/17 08:11:24;;;;;;;9.57;8.98;;;1178.50;768.00;;;;;;5012921;28;20032;-58
2022/05/17 08:13:50;;;;;;;9.80;9.05;;;1203.30;793.60;;;;;;5012985;28;20061;-57
2022/05/17 08:16:15;;;;;;;10.43;9.73;;;1178.00;768.00;;;;;;5013104;28;20503;-58
2022/05/17 08:18:41;;;;;;;9.63;8.98;;;1152.10;819.20;;;;;;5013258;28;20423;-57
2022/05/17 08:21:07;;;;;;;9.70;8.02;;;1075.90;844.80;;;;;;5012810;28;20018;-58
2022/05/17 08:23:34;;;;;;;6.72;6.10;;;1024.30;947.20;;;;;;5012654;28;20038;-57
2022/05/17 08:28:43;;;;;;;6.07;5.47;;;948.10;998.40;;;;;;5012969;28;20060;-57
2022/05/17 08:31:10;;;;;;;7.47;5.43;;;922.10;1024.00;;;;;;5012570;28;20484;-56
2022/05/17 08:33:38;;;;;;;5.85;4.78;;;896.80;1049.60;;;;;;5012526;28;20018;-57
2022/05/17 08:36:08;;;;;;;7.13;5.50;;;896.70;1075.20;;;;;;5012466;28;20083;-56
2022/05/17 08:38:36;;;;;;;5.15;4.65;;;896.20;1075.20;;;;;;5012663;28;20018;-56
2022/05/17 08:41:13;;;;;;;6.10;4.45;;;871.10;1126.40;;;;;;5012548;28;20018;-58
2022/05/17 08:43:47;;;;;;;8.27;5.75;;;871.00;1126.40;;;;;;5012192;28;20036;-56
2022/05/17 08:46:26;;;;;;;6.30;4.70;;;870.60;1152.00;;;;;;5012581;28;20034;-56
2022/05/17 08:49:19;;;;;;;5.28;4.45;;;845.70;1177.60;;;;;;5012261;28;20038;-56
2022/05/17 08:51:58;;;;;;;6.03;4.55;;;845.40;1203.20;;;;;;5012117;28;20034;-55
2022/05/17 08:54:37;;;;;;;7.20;5.28;;;845.40;1203.20;;;;;;5012245;28;20084;-55
2022/05/17 08:57:25;;;;;;;5.28;4.78;;;845.40;1228.80;;;;;;5012431;28;20081;-56
2022/05/17 08:59:52;;;;;;;5.65;4.95;;;845.30;1203.20;;;;;;4913523;29;20459;-56
2022/05/17 09:02:36;;;;;;;6.88;4.85;;;845.10;1228.80;;;;;;4913269;29;20047;-55
2022/05/17 09:05:04;;;;;;;6.07;5.38;;;844.80;1254.40;;;;;;4913475;29;20036;-56
2022/05/17 09:07:50;;;;;;;7.38;4.93;;;844.90;1228.80;;;;;;4913273;29;20028;-58
2022/05/17 09:10:36;;;;;;;5.88;4.57;;;844.90;1254.40;;;;;;4913252;29;20052;-57
2022/05/17 09:13:09;;;;;;;6.20;4.35;;;844.90;1280.00;;;;;;4913481;29;20475;-56
2022/05/17 09:15:35;;;;;;;7.50;5.80;;;844.90;1280.00;;;;;;4913426;29;20032;-56
2022/05/17 09:18:07;;;;;;;6.40;4.60;;;844.80;1280.00;;;;;;4917828;29;20055;-56
2022/05/17 09:20:34;;;;;;;;;;;844.90;1254.40;;;;;;4920467;29;20091;-56
2022/05/17 09:23:00;;;;;;;5.15;4.30;;;820.10;1254.40;;;;;;4922946;29;20385;-56
2022/05/17 09:25:45;;;;;;;6.82;4.97;;;820.10;1254.40;;;;;;4917292;29;20078;-56
2022/05/17 09:28:16;;;;;;;9.35;6.68;;;844.80;1280.00;;;;;;4916962;29;20505;-56
2022/05/17 09:30:42;;;;;;;6.35;5.40;;;819.90;1254.40;;;;;;4920099;29;20051;-56
2022/05/17 09:33:15;;;;;;;4.47;4.00;;;819.80;1254.40;;;;;;4915807;29;20032;-55
2022/05/17 09:35:53;;;;;;;;;;;819.80;1280.00;;;;;;4918924;29;20034;-59
2022/05/17 09:38:19;;;;;;;6.47;4.97;;;844.90;1280.00;;;;;;4997691;28;19914;-57
2022/05/17 09:40:48;;;;;;;7.47;4.97;;;844.80;1331.20;;;;;;4997617;28;20022;-60
2022/05/17 09:43:16;;;;;;;5.28;4.47;;;844.80;1305.60;;;;;;4981936;28;20038;-56
2022/05/17 09:45:50;;;;;;;6.40;4.65;;;819.80;1254.40;;;;;;4999520;28;20023;-55
2022/05/17 09:52:32;;;;;;;6.05;4.70;;;819.70;1280.00;;;;;;4999478;28;20064;-56
2022/05/17 09:55:22;;;;;;;6.43;4.90;;;819.70;1254.40;;;;;;4956127;28;20523;-56
2022/05/17 09:58:03;;;;;;;6.30;4.45;;;819.80;1280.00;;;;;;4923649;29;20032;-56
2022/05/17 10:00:41;;;;;;;5.53;4.97;;;820.10;1254.40;;;;;;4929443;29;20062;-59
2022/05/17 10:03:12;;;;;;;5.55;4.28;;;844.90;1280.00;;;;;;4928282;29;20047;-56
2022/05/17 10:05:40;;;;;;;5.40;4.32;;;819.90;1228.80;;;;;;4929444;29;20040;-58
2022/05/17 10:08:37;;;;;;;5.20;4.07;;;819.90;1228.80;;;;;;4929392;29;20043;-55
2022/05/17 10:11:39;;;;;;;5.85;4.15;;;819.80;1254.40;;;;;;4931791;29;20024;-56
2022/05/17 10:14:33;;;;;;;6.68;4.90;;;819.60;1280.00;;;;;;4931225;29;20043;-55
2022/05/17 10:17:24;;;;;;;5.55;4.95;;;819.80;1305.60;;;;;;4931063;29;20501;-55
2022/05/17 10:19:58;;;;;;;5.68;4.50;;;819.70;1305.60;;;;;;4920916;29;20040;-55
2022/05/17 10:22:36;;;;;;;6.72;5.10;;;820.10;1280.00;;;;;;4931080;29;20494;-56
2022/05/17 10:25:05;;;;;;;5.93;5.07;;;820.10;1280.00;;;;;;4930820;29;20553;-56
2022/05/17 10:27:43;;;;;;;5.57;4.82;;;820.10;1280.00;;;;;;4928340;29;20157;-60
2022/05/17 10:30:14;;;;;;;6.30;4.50;;;820.00;1280.00;;;;;;4911966;29;20044;-56
2022/05/17 10:32:59;;;;;;;5.78;5.20;;;819.50;1305.60;;;;;;4947700;29;20039;-55
2022/05/17 10:35:47;;;;;;;7.15;5.43;;;819.90;1305.60;;;;;;4980227;28;20035;-55
2022/05/17 10:38:28;;;;;;;5.97;4.75;;;819.30;1280.00;;;;;;4991046;28;20439;-56
2022/05/17 10:40:56;;;;;;;6.20;5.53;;;794.30;1280.00;;;;;;4990818;28;20034;-59
2022/05/17 10:43:31;;;;;;;5.47;4.60;;;794.40;1305.60;;;;;;4990919;28;20085;-56
2022/05/17 10:46:06;;;;;;;5.03;3.92;;;794.50;1305.60;;;;;;4990433;28;20481;-60
2022/05/17 10:48:44;;;;;;;6.80;6.10;;;819.30;1331.20;;;;;;4990688;28;20069;-56
2022/05/17 10:51:34;;;;;;;8.75;4.75;;;819.60;1305.60;;;;;;4990606;28;20026;-56
2022/05/17 10:54:25;;;;;;;6.32;4.97;;;819.80;1280.00;;;;;;4990246;28;20026;-56
2022/05/17 10:57:14;;;;;;;5.57;4.35;;;820.10;1280.00;;;;;;4990604;28;20504;-58
2022/05/17 10:59:52;;;;;;;5.90;5.07;;;819.40;1254.40;;;;;;4990742;28;20031;-57
2022/05/17 11:02:36;;;;;;;5.28;4.75;;;819.60;1280.00;;;;;;4990432;28;20129;-56
2022/05/17 11:05:07;;;;;;;6.00;5.28;;;819.70;1331.20;;;;;;4972924;28;20046;-56
2022/05/17 11:07:57;;;;;;;7.18;5.15;;;819.60;1331.20;;;;;;4990490;28;20322;-54
2022/05/17 11:10:52;;;;;;;6.93;5.72;;;819.60;1280.00;;;;;;4990562;28;20038;-56
2022/05/17 11:13:40;;;;;;;6.28;4.38;;;819.50;1331.20;;;;;;4989911;28;20575;-56
2022/05/17 11:16:12;;;;;;;6.32;4.82;;;794.50;1331.20;;;;;;4992705;28;20046;-58
2022/05/17 11:18:49;;;;;;;6.40;4.93;;;794.40;1356.80;;;;;;4998892;28;20014;-57
2022/05/17 11:21:27;;;;;;;6.85;4.90;;;793.90;1382.40;;;;;;4998848;28;20476;-56
2022/05/17 11:24:03;;;;;;;7.70;4.50;;;768.90;1382.40;;;;;;5001065;28;20065;-57
2022/05/17 11:26:38;;;;;;;5.63;4.03;;;768.90;1382.40;;;;;;5020232;28;20546;-59
2022/05/17 11:29:29;;;;;;;6.13;4.85;;;768.80;1408.00;;;;;;5021484;28;20037;-56
2022/05/17 11:32:15;;;;;;;5.88;4.78;;;768.70;1382.40;;;;;;5018024;28;20515;-57
2022/05/17 11:34:43;;;;;;;7.90;4.90;;;768.70;1356.80;;;;;;5019661;28;20361;-55
2022/05/17 11:37:32;;;;;;;7.43;4.35;;;768.70;1356.80;;;;;;5020552;28;20025;-55
2022/05/17 11:40:04;;;;;;;6.38;4.60;;;768.90;1356.80;;;;;;5016570;28;20032;-56
2022/05/17 11:42:35;;;;;;;4.03;3.60;;;768.60;1356.80;;;;;;4991985;28;20116;-57
2022/05/17 11:45:40;;;;;;;5.38;4.43;;;768.60;1356.80;;;;;;5016385;28;20076;-55
2022/05/17 11:48:16;;;;;;;5.32;4.20;;;768.40;1356.80;;;;;;5022447;28;20022;-57
2022/05/17 11:50:59;;;;;;;7.68;4.47;;;768.40;1356.80;;;;;;5011959;28;20274;-55
2022/05/17 11:53:24;;;;;;;4.75;4.05;;;768.50;1382.40;;;;;;5023615;28;20116;-57
2022/05/17 11:56:14;;;;;;;5.50;4.20;;;768.40;1356.80;;;;;;5027674;28;20128;-55
2022/05/17 11:58:42;;;;;;;4.72;3.85;;;768.40;1382.40;;;;;;5031478;28;20160;-56
2022/05/17 12:01:37;;;;;;;7.28;4.20;;;768.30;1382.40;;;;;;5031165;28;20476;-60
2022/05/17 12:04:22;;;;;;;3.97;3.55;;;768.30;1356.80;;;;;;4931566;29;20050;-55
2022/05/17 12:06:48;;;;;;;5.80;4.38;;;768.10;1382.40;;;;;;4931075;29;20082;-55
2022/05/17 12:09:33;;;;;;;6.70;4.30;;;768.10;1382.40;;;;;;4931709;29;20075;-55
2022/05/17 12:12:41;;;;;;;6.47;4.63;;;768.40;1408.00;;;;;;4926791;29;20042;-56
2022/05/17 12:15:17;;;;;;;6.15;4.03;;;768.10;1382.40;;;;;;4912369;29;20115;-55
2022/05/17 12:18:05;;;;;;;5.45;3.70;;;768.00;1408.00;;;;;;4912555;29;20039;-58
2022/05/17 12:20:59;;;;;;;6.97;4.28;;;743.10;1408.00;;;;;;4912169;29;20036;-55
2022/05/17 12:23:35;;;;;;;6.72;4.05;;;742.70;1433.60;;;;;;4914685;29;20119;-57
2022/05/17 12:26:08;;;;;;;6.07;4.60;;;742.90;1459.20;;;;;;4902511;29;20089;-55
2022/05/17 12:28:41;;;;;;;5.47;4.28;;;742.90;1433.60;;;;;;4902635;29;20120;-59
2022/05/17 12:31:10;;;;;;;6.35;3.70;;;743.00;1433.60;;;;;;4908874;29;20118;-58
2022/05/17 12:33:42;;;;;;;5.68;4.25;;;743.00;1459.20;;;;;;4912788;29;20028;-58
2022/05/17 12:36:28;;;;;;;6.55;4.55;;;743.00;1433.60;;;;;;4897349;29;20582;-55
2022/05/17 12:44:38;;;;;;;7.45;4.80;;;717.50;1536.00;;;;;;5012842;28;20041;-55
2022/05/17 12:47:13;;;;;;;6.88;4.55;;;717.00;1587.20;;;;;;5012430;28;20084;-55
2022/05/17 12:49:41;;;;;;;6.80;4.28;;;717.40;1587.20;;;;;;5012101;28;20104;-55
2022/05/17 12:52:16;;;;;;;6.88;4.47;;;717.60;1587.20;;;;;;5012003;28;20109;-56
2022/05/17 12:54:41;;;;;;;7.22;4.53;;;742.40;1587.20;;;;;;5012196;28;20044;-57
2022/05/17 12:57:17;;;;;;;9.23;5.20;;;742.40;1587.20;;;;;;5011896;28;20480;-57